sensor_id;sensor_type;location;lat;lon;timestamp;P1;durP1;ratioP1;P2;durP2;ratioP2
65271;SDS011;51868;48.812;8.198;2022-10-16T00:01:27;5.03;;;1.70;;
65271;SDS011;51868;48.812;8.198;2022-10-16T00:03:59;4.32;;;1.30;;
65271;SDS011;51868;48.812;8.198;2022-10-16T00:06:28;6.13;;;1.35;;
65271;SDS011;51868;48.812;8.198;2022-10-16T00:08:56;3.95;;;1.30;;
65271;SDS011;51868;48.812;8.198;2022-10-16T00:11:25;3.80;;;1.25;;
65271;SDS011;51868;48.812;8.198;2022-10-16T00:13:57;5.22;;;1.20;;
65271;SDS011;51868;48.812;8.198;2022-10-16T00:16:26;2.05;;;1.20;;
65271;SDS011;51868;48.812;8.198;2022-10-16T00:18:55;2.47;;;1.20;;
65271;SDS011;51868;48.812;8.198;2022-10-16T00:21:25;5.43;;;1.30;;
65271;SDS011;51868;48.812;8.198;2022-10-16T00:23:54;2.30;;;1.10;;
65271;SDS011;51868;48.812;8.198;2022-10-16T00:26:23;3.08;;;1.05;;
65271;SDS011;51868;48.812;8.198;2022-10-16T00:28:51;1.70;;;1.10;;
65271;SDS011;51868;48.812;8.198;2022-10-16T00:31:21;4.15;;;1.05;;
65271;SDS011;51868;48.812;8.198;2022-10-16T00:33:50;5.13;;;1.35;;
65271;SDS011;51868;48.812;8.198;2022-10-16T00:36:18;1.95;;;1.10;;
65271;SDS011;51868;48.812;8.198;2022-10-16T00:38:49;2.45;;;1.20;;
65271;SDS011;51868;48.812;8.198;2022-10-16T00:41:19;2.13;;;1.10;;
65271;SDS011;51868;48.812;8.198;2022-10-16T00:43:48;6.32;;;1.17;;
65271;SDS011;51868;48.812;8.198;2022-10-16T00:46:17;1.10;;;1.00;;
65271;SDS011;51868;48.812;8.198;2022-10-16T00:48:50;4.88;;;1.90;;
65271;SDS011;51868;48.812;8.198;2022-10-16T00:53:50;6.28;;;1.15;;
65271;SDS011;51868;48.812;8.198;2022-10-16T00:56:17;1.10;;;1.00;;
65271;SDS011;51868;48.812;8.198;2022-10-16T00:58:45;2.65;;;1.10;;
65271;SDS011;51868;48.812;8.198;2022-10-16T01:01:13;1.70;;;1.13;;
65271;SDS011;51868;48.812;8.198;2022-10-16T01:03:41;1.30;;;1.10;;
65271;SDS011;51868;48.812;8.198;2022-10-16T01:06:12;2.25;;;1.42;;
65271;SDS011;51868;48.812;8.198;2022-10-16T01:08:57;3.03;;;1.00;;
65271;SDS011;51868;48.812;8.198;2022-10-16T01:11:32;2.58;;;1.13;;
65271;SDS011;51868;48.812;8.198;2022-10-16T01:14:06;2.05;;;0.98;;
65271;SDS011;51868;48.812;8.198;2022-10-16T01:16:43;2.58;;;1.10;;
65271;SDS011;51868;48.812;8.198;2022-10-16T01:19:17;4.53;;;1.23;;
65271;SDS011;51868;48.812;8.198;2022-10-16T01:21:53;1.05;;;0.95;;
65271;SDS011;51868;48.812;8.198;2022-10-16T01:24:27;3.77;;;1.07;;
65271;SDS011;51868;48.812;8.198;2022-10-16T01:27:11;1.40;;;1.00;;
65271;SDS011;51868;48.812;8.198;2022-10-16T01:29:42;1.30;;;1.00;;
65271;SDS011;51868;48.812;8.198;2022-10-16T01:32:16;3.28;;;1.20;;
65271;SDS011;51868;48.812;8.198;2022-10-16T01:34:49;1.48;;;1.00;;
65271;SDS011;51868;48.812;8.198;2022-10-16T01:37:25;3.15;;;1.10;;
65271;SDS011;51868;48.812;8.198;2022-10-16T01:40:00;4.60;;;1.20;;
65271;SDS011;51868;48.812;8.198;2022-10-16T01:42:35;1.45;;;1.20;;
65271;SDS011;51868;48.812;8.198;2022-10-16T01:45:06;3.92;;;1.20;;
65271;SDS011;51868;48.812;8.198;2022-10-16T01:47:37;7.80;;;1.50;;
65271;SDS011;51868;48.812;8.198;2022-10-16T01:50:07;1.40;;;1.30;;
65271;SDS011;51868;48.812;8.198;2022-10-16T01:52:36;4.43;;;1.80;;
65271;SDS011;51868;48.812;8.198;2022-10-16T01:55:07;5.90;;;1.23;;
65271;SDS011;51868;48.812;8.198;2022-10-16T01:57:39;3.25;;;1.67;;
65271;SDS011;51868;48.812;8.198;2022-10-16T02:00:12;2.45;;;1.27;;
65271;SDS011;51868;48.812;8.198;2022-10-16T02:02:42;6.72;;;1.98;;
65271;SDS011;51868;48.812;8.198;2022-10-16T02:05:14;4.18;;;1.52;;
65271;SDS011;51868;48.812;8.198;2022-10-16T02:07:46;3.17;;;1.33;;
65271;SDS011;51868;48.812;8.198;2022-10-16T02:10:15;4.65;;;1.10;;
65271;SDS011;51868;48.812;8.198;2022-10-16T02:12:45;3.22;;;1.65;;
65271;SDS011;51868;48.812;8.198;2022-10-16T02:15:17;6.22;;;1.70;;
65271;SDS011;51868;48.812;8.198;2022-10-16T02:17:45;1.55;;;1.20;;
65271;SDS011;51868;48.812;8.198;2022-10-16T02:20:12;5.78;;;1.70;;
65271;SDS011;51868;48.812;8.198;2022-10-16T02:22:40;2.53;;;1.30;;
65271;SDS011;51868;48.812;8.198;2022-10-16T02:25:11;4.32;;;1.90;;
65271;SDS011;51868;48.812;8.198;2022-10-16T02:27:49;2.22;;;1.60;;
65271;SDS011;51868;48.812;8.198;2022-10-16T02:30:23;3.05;;;1.70;;
65271;SDS011;51868;48.812;8.198;2022-10-16T02:32:56;2.63;;;1.75;;
65271;SDS011;51868;48.812;8.198;2022-10-16T02:35:26;3.50;;;1.70;;
65271;SDS011;51868;48.812;8.198;2022-10-16T02:37:55;2.70;;;1.40;;
65271;SDS011;51868;48.812;8.198;2022-10-16T02:40:24;5.82;;;1.60;;
65271;SDS011;51868;48.812;8.198;2022-10-16T02:42:55;3.15;;;1.80;;
65271;SDS011;51868;48.812;8.198;2022-10-16T02:45:23;5.47;;;1.70;;
65271;SDS011;51868;48.812;8.198;2022-10-16T02:47:51;2.03;;;1.40;;
65271;SDS011;51868;48.812;8.198;2022-10-16T02:50:18;3.55;;;1.55;;
65271;SDS011;51868;48.812;8.198;2022-10-16T02:52:46;2.75;;;1.50;;
65271;SDS011;51868;48.812;8.198;2022-10-16T02:55:14;3.78;;;1.52;;
65271;SDS011;51868;48.812;8.198;2022-10-16T02:57:42;2.30;;;1.50;;
65271;SDS011;51868;48.812;8.198;2022-10-16T03:00:12;2.22;;;1.70;;
65271;SDS011;51868;48.812;8.198;2022-10-16T03:02:41;2.13;;;1.42;;
65271;SDS011;51868;48.812;8.198;2022-10-16T03:05:09;1.85;;;1.27;;
65271;SDS011;51868;48.812;8.198;2022-10-16T03:07:37;4.07;;;1.42;;
65271;SDS011;51868;48.812;8.198;2022-10-16T03:10:05;2.30;;;1.30;;
65271;SDS011;51868;48.812;8.198;2022-10-16T03:12:33;2.60;;;1.30;;
65271;SDS011;51868;48.812;8.198;2022-10-16T03:15:01;3.50;;;1.50;;
65271;SDS011;51868;48.812;8.198;2022-10-16T03:17:31;6.15;;;1.85;;
65271;SDS011;51868;48.812;8.198;2022-10-16T03:19:58;3.65;;;1.70;;
65271;SDS011;51868;48.812;8.198;2022-10-16T03:22:26;2.28;;;1.65;;
65271;SDS011;51868;48.812;8.198;2022-10-16T03:24:54;5.05;;;1.52;;
65271;SDS011;51868;48.812;8.198;2022-10-16T03:27:21;1.98;;;1.60;;
65271;SDS011;51868;48.812;8.198;2022-10-16T03:29:49;4.18;;;1.90;;
65271;SDS011;51868;48.812;8.198;2022-10-16T03:32:17;1.83;;;1.48;;
65271;SDS011;51868;48.812;8.198;2022-10-16T03:34:47;2.50;;;1.65;;
65271;SDS011;51868;48.812;8.198;2022-10-16T03:37:15;5.68;;;1.67;;
65271;SDS011;51868;48.812;8.198;2022-10-16T03:39:42;7.70;;;1.63;;
65271;SDS011;51868;48.812;8.198;2022-10-16T03:42:10;2.80;;;1.80;;
65271;SDS011;51868;48.812;8.198;2022-10-16T03:44:38;2.80;;;1.50;;
65271;SDS011;51868;48.812;8.198;2022-10-16T03:47:06;6.25;;;1.55;;
65271;SDS011;51868;48.812;8.198;2022-10-16T03:49:34;3.85;;;1.70;;
65271;SDS011;51868;48.812;8.198;2022-10-16T03:52:03;5.82;;;1.63;;
65271;SDS011;51868;48.812;8.198;2022-10-16T03:54:30;2.67;;;1.75;;
65271;SDS011;51868;48.812;8.198;2022-10-16T03:56:58;3.25;;;1.55;;
65271;SDS011;51868;48.812;8.198;2022-10-16T03:59:26;8.95;;;2.47;;
65271;SDS011;51868;48.812;8.198;2022-10-16T04:01:53;2.50;;;1.48;;
65271;SDS011;51868;48.812;8.198;2022-10-16T04:04:21;6.25;;;1.70;;
65271;SDS011;51868;48.812;8.198;2022-10-16T04:06:49;1.92;;;1.65;;
65271;SDS011;51868;48.812;8.198;2022-10-16T04:09:17;6.07;;;1.90;;
65271;SDS011;51868;48.812;8.198;2022-10-16T04:11:45;2.80;;;1.80;;
65271;SDS011;51868;48.812;8.198;2022-10-16T04:14:13;6.70;;;1.70;;
65271;SDS011;51868;48.812;8.198;2022-10-16T04:16:41;7.38;;;2.33;;
65271;SDS011;51868;48.812;8.198;2022-10-16T04:19:09;4.07;;;1.58;;
65271;SDS011;51868;48.812;8.198;2022-10-16T04:21:37;4.00;;;1.45;;
65271;SDS011;51868;48.812;8.198;2022-10-16T04:24:04;7.57;;;1.65;;
65271;SDS011;51868;48.812;8.198;2022-10-16T04:26:33;4.57;;;1.75;;
65271;SDS011;51868;48.812;8.198;2022-10-16T04:29:01;4.28;;;1.67;;
65271;SDS011;51868;48.812;8.198;2022-10-16T04:31:29;5.43;;;1.50;;
65271;SDS011;51868;48.812;8.198;2022-10-16T04:33:57;7.07;;;1.80;;
65271;SDS011;51868;48.812;8.198;2022-10-16T04:36:25;2.45;;;1.50;;
65271;SDS011;51868;48.812;8.198;2022-10-16T04:38:54;4.45;;;1.80;;
65271;SDS011;51868;48.812;8.198;2022-10-16T04:41:22;3.70;;;1.85;;
65271;SDS011;51868;48.812;8.198;2022-10-16T04:43:51;4.10;;;1.70;;
65271;SDS011;51868;48.812;8.198;2022-10-16T04:46:18;5.97;;;1.77;;
65271;SDS011;51868;48.812;8.198;2022-10-16T04:48:46;11.30;;;2.45;;
65271;SDS011;51868;48.812;8.198;2022-10-16T04:51:14;3.35;;;1.40;;
65271;SDS011;51868;48.812;8.198;2022-10-16T04:53:41;3.50;;;1.48;;
65271;SDS011;51868;48.812;8.198;2022-10-16T04:56:09;5.00;;;1.58;;
65271;SDS011;51868;48.812;8.198;2022-10-16T04:58:36;4.72;;;1.73;;
65271;SDS011;51868;48.812;8.198;2022-10-16T05:01:05;5.70;;;1.67;;
65271;SDS011;51868;48.812;8.198;2022-10-16T05:03:33;3.08;;;1.50;;
65271;SDS011;51868;48.812;8.198;2022-10-16T05:06:01;8.07;;;1.73;;
65271;SDS011;51868;48.812;8.198;2022-10-16T05:08:30;3.60;;;1.50;;
65271;SDS011;51868;48.812;8.198;2022-10-16T05:10:57;3.72;;;2.00;;
65271;SDS011;51868;48.812;8.198;2022-10-16T05:13:25;4.05;;;1.52;;
65271;SDS011;51868;48.812;8.198;2022-10-16T05:15:53;7.65;;;2.00;;
65271;SDS011;51868;48.812;8.198;2022-10-16T05:18:22;3.78;;;1.80;;
65271;SDS011;51868;48.812;8.198;2022-10-16T05:20:49;6.10;;;1.77;;
65271;SDS011;51868;48.812;8.198;2022-10-16T05:23:17;4.18;;;1.70;;
65271;SDS011;51868;48.812;8.198;2022-10-16T05:25:51;5.05;;;1.90;;
65271;SDS011;51868;48.812;8.198;2022-10-16T05:28:20;3.05;;;1.48;;
65271;SDS011;51868;48.812;8.198;2022-10-16T05:30:48;4.95;;;1.88;;
65271;SDS011;51868;48.812;8.198;2022-10-16T05:33:16;7.88;;;2.22;;
65271;SDS011;51868;48.812;8.198;2022-10-16T05:35:45;6.03;;;2.35;;
65271;SDS011;51868;48.812;8.198;2022-10-16T05:38:14;12.63;;;3.47;;
65271;SDS011;51868;48.812;8.198;2022-10-16T05:40:41;6.80;;;3.33;;
65271;SDS011;51868;48.812;8.198;2022-10-16T05:43:09;3.50;;;2.00;;
65271;SDS011;51868;48.812;8.198;2022-10-16T05:45:36;6.35;;;2.20;;
65271;SDS011;51868;48.812;8.198;2022-10-16T05:48:04;6.03;;;2.00;;
65271;SDS011;51868;48.812;8.198;2022-10-16T05:50:32;8.18;;;2.22;;
65271;SDS011;51868;48.812;8.198;2022-10-16T05:53:01;2.58;;;1.60;;
65271;SDS011;51868;48.812;8.198;2022-10-16T05:55:29;6.10;;;3.97;;
65271;SDS011;51868;48.812;8.198;2022-10-16T05:57:57;10.13;;;5.80;;
65271;SDS011;51868;48.812;8.198;2022-10-16T06:00:24;11.20;;;4.70;;
65271;SDS011;51868;48.812;8.198;2022-10-16T06:02:52;5.78;;;2.88;;
65271;SDS011;51868;48.812;8.198;2022-10-16T06:05:20;5.03;;;2.10;;
65271;SDS011;51868;48.812;8.198;2022-10-16T06:07:48;2.67;;;2.25;;
65271;SDS011;51868;48.812;8.198;2022-10-16T06:10:20;7.97;;;2.40;;
65271;SDS011;51868;48.812;8.198;2022-10-16T06:12:47;6.00;;;2.00;;
65271;SDS011;51868;48.812;8.198;2022-10-16T06:15:15;5.05;;;1.83;;
65271;SDS011;51868;48.812;8.198;2022-10-16T06:17:43;4.97;;;1.98;;
65271;SDS011;51868;48.812;8.198;2022-10-16T06:20:11;5.25;;;1.80;;
65271;SDS011;51868;48.812;8.198;2022-10-16T06:22:38;4.85;;;1.80;;
65271;SDS011;51868;48.812;8.198;2022-10-16T06:25:06;9.80;;;2.72;;
65271;SDS011;51868;48.812;8.198;2022-10-16T06:27:35;7.88;;;1.65;;
65271;SDS011;51868;48.812;8.198;2022-10-16T06:30:03;5.28;;;1.60;;
65271;SDS011;51868;48.812;8.198;2022-10-16T06:32:32;3.03;;;1.60;;
65271;SDS011;51868;48.812;8.198;2022-10-16T06:34:59;6.70;;;1.77;;
65271;SDS011;51868;48.812;8.198;2022-10-16T06:37:27;8.13;;;1.58;;
65271;SDS011;51868;48.812;8.198;2022-10-16T06:39:55;6.78;;;1.40;;
65271;SDS011;51868;48.812;8.198;2022-10-16T06:42:22;2.58;;;1.40;;
65271;SDS011;51868;48.812;8.198;2022-10-16T06:44:52;6.32;;;1.67;;
65271;SDS011;51868;48.812;8.198;2022-10-16T06:47:19;4.05;;;1.40;;
65271;SDS011;51868;48.812;8.198;2022-10-16T06:49:47;3.17;;;1.50;;
65271;SDS011;51868;48.812;8.198;2022-10-16T06:52:19;2.25;;;1.48;;
65271;SDS011;51868;48.812;8.198;2022-10-16T06:54:47;5.70;;;1.52;;
65271;SDS011;51868;48.812;8.198;2022-10-16T06:57:14;4.47;;;1.40;;
65271;SDS011;51868;48.812;8.198;2022-10-16T06:59:42;5.85;;;1.52;;
65271;SDS011;51868;48.812;8.198;2022-10-16T07:02:13;3.47;;;1.73;;
65271;SDS011;51868;48.812;8.198;2022-10-16T07:04:41;1.60;;;1.45;;
65271;SDS011;51868;48.812;8.198;2022-10-16T07:07:09;3.75;;;1.60;;
65271;SDS011;51868;48.812;8.198;2022-10-16T07:09:36;3.55;;;1.77;;
65271;SDS011;51868;48.812;8.198;2022-10-16T07:12:04;8.57;;;2.08;;
65271;SDS011;51868;48.812;8.198;2022-10-16T07:14:32;4.68;;;1.70;;
65271;SDS011;51868;48.812;8.198;2022-10-16T07:17:07;4.07;;;1.90;;
65271;SDS011;51868;48.812;8.198;2022-10-16T07:19:36;5.47;;;1.40;;
65271;SDS011;51868;48.812;8.198;2022-10-16T07:22:04;3.63;;;1.65;;
65271;SDS011;51868;48.812;8.198;2022-10-16T07:24:35;3.25;;;1.88;;
65271;SDS011;51868;48.812;8.198;2022-10-16T07:27:03;8.85;;;1.90;;
65271;SDS011;51868;48.812;8.198;2022-10-16T07:29:31;7.80;;;1.90;;
65271;SDS011;51868;48.812;8.198;2022-10-16T07:31:58;4.65;;;1.83;;
65271;SDS011;51868;48.812;8.198;2022-10-16T07:34:27;1.58;;;1.48;;
65271;SDS011;51868;48.812;8.198;2022-10-16T07:37:02;5.57;;;1.50;;
65271;SDS011;51868;48.812;8.198;2022-10-16T07:39:30;5.13;;;1.52;;
65271;SDS011;51868;48.812;8.198;2022-10-16T07:41:58;4.22;;;1.80;;
65271;SDS011;51868;48.812;8.198;2022-10-16T07:44:25;5.82;;;1.48;;
65271;SDS011;51868;48.812;8.198;2022-10-16T07:46:53;3.22;;;1.83;;
65271;SDS011;51868;48.812;8.198;2022-10-16T07:49:21;4.70;;;1.90;;
65271;SDS011;51868;48.812;8.198;2022-10-16T07:51:48;2.10;;;1.50;;
65271;SDS011;51868;48.812;8.198;2022-10-16T07:54:17;1.90;;;1.70;;
65271;SDS011;51868;48.812;8.198;2022-10-16T07:56:45;3.97;;;1.58;;
65271;SDS011;51868;48.812;8.198;2022-10-16T07:59:13;3.70;;;1.70;;
65271;SDS011;51868;48.812;8.198;2022-10-16T08:01:41;4.10;;;2.13;;
65271;SDS011;51868;48.812;8.198;2022-10-16T08:04:09;5.03;;;1.95;;
65271;SDS011;51868;48.812;8.198;2022-10-16T08:06:38;4.43;;;1.92;;
65271;SDS011;51868;48.812;8.198;2022-10-16T08:09:07;3.28;;;2.20;;
65271;SDS011;51868;48.812;8.198;2022-10-16T08:11:36;4.05;;;1.88;;
65271;SDS011;51868;48.812;8.198;2022-10-16T08:14:04;5.78;;;2.03;;
65271;SDS011;51868;48.812;8.198;2022-10-16T08:16:32;4.55;;;2.10;;
65271;SDS011;51868;48.812;8.198;2022-10-16T08:18:59;3.28;;;2.10;;
65271;SDS011;51868;48.812;8.198;2022-10-16T08:21:27;8.25;;;2.00;;
65271;SDS011;51868;48.812;8.198;2022-10-16T08:23:55;4.30;;;2.10;;
65271;SDS011;51868;48.812;8.198;2022-10-16T08:26:26;7.20;;;2.22;;
65271;SDS011;51868;48.812;8.198;2022-10-16T08:28:56;7.82;;;2.20;;
65271;SDS011;51868;48.812;8.198;2022-10-16T08:31:24;4.10;;;2.17;;
65271;SDS011;51868;48.812;8.198;2022-10-16T08:33:53;3.65;;;2.38;;
65271;SDS011;51868;48.812;8.198;2022-10-16T08:36:23;4.65;;;2.20;;
65271;SDS011;51868;48.812;8.198;2022-10-16T08:38:50;6.60;;;2.20;;
65271;SDS011;51868;48.812;8.198;2022-10-16T08:41:29;5.18;;;2.10;;
65271;SDS011;51868;48.812;8.198;2022-10-16T08:44:16;4.38;;;2.05;;
65271;SDS011;51868;48.812;8.198;2022-10-16T08:46:56;5.05;;;2.08;;
65271;SDS011;51868;48.812;8.198;2022-10-16T08:49:30;5.82;;;2.05;;
65271;SDS011;51868;48.812;8.198;2022-10-16T08:51:58;5.00;;;2.50;;
65271;SDS011;51868;48.812;8.198;2022-10-16T08:54:28;8.73;;;2.28;;
65271;SDS011;51868;48.812;8.198;2022-10-16T08:57:00;3.70;;;2.25;;
65271;SDS011;51868;48.812;8.198;2022-10-16T08:59:38;4.63;;;2.40;;
65271;SDS011;51868;48.812;8.198;2022-10-16T09:02:13;5.70;;;2.80;;
65271;SDS011;51868;48.812;8.198;2022-10-16T09:04:55;3.67;;;2.83;;
65271;SDS011;51868;48.812;8.198;2022-10-16T09:07:38;9.55;;;2.63;;
65271;SDS011;51868;48.812;8.198;2022-10-16T09:10:16;5.45;;;2.20;;
65271;SDS011;51868;48.812;8.198;2022-10-16T09:12:55;2.63;;;2.10;;
65271;SDS011;51868;48.812;8.198;2022-10-16T09:15:31;2.97;;;1.90;;
65271;SDS011;51868;48.812;8.198;2022-10-16T09:18:05;2.38;;;1.63;;
65271;SDS011;51868;48.812;8.198;2022-10-16T09:20:42;8.55;;;1.70;;
65271;SDS011;51868;48.812;8.198;2022-10-16T09:23:17;4.57;;;1.70;;
65271;SDS011;51868;48.812;8.198;2022-10-16T09:25:49;9.82;;;1.70;;
65271;SDS011;51868;48.812;8.198;2022-10-16T09:28:20;3.85;;;1.50;;
65271;SDS011;51868;48.812;8.198;2022-10-16T09:30:49;3.72;;;2.67;;
65271;SDS011;51868;48.812;8.198;2022-10-16T09:33:19;3.95;;;1.80;;
65271;SDS011;51868;48.812;8.198;2022-10-16T09:35:50;4.18;;;1.52;;
65271;SDS011;51868;48.812;8.198;2022-10-16T09:38:22;6.15;;;1.60;;
65271;SDS011;51868;48.812;8.198;2022-10-16T09:40:52;5.32;;;1.83;;
65271;SDS011;51868;48.812;8.198;2022-10-16T09:43:28;2.28;;;1.45;;
65271;SDS011;51868;48.812;8.198;2022-10-16T09:46:05;6.30;;;2.20;;
65271;SDS011;51868;48.812;8.198;2022-10-16T09:48:43;4.90;;;1.70;;
65271;SDS011;51868;48.812;8.198;2022-10-16T09:51:18;5.63;;;1.70;;
65271;SDS011;51868;48.812;8.198;2022-10-16T09:53:53;5.00;;;1.65;;
65271;SDS011;51868;48.812;8.198;2022-10-16T09:56:25;6.20;;;1.60;;
65271;SDS011;51868;48.812;8.198;2022-10-16T09:58:57;4.63;;;1.70;;
65271;SDS011;51868;48.812;8.198;2022-10-16T10:01:35;4.38;;;1.55;;
65271;SDS011;51868;48.812;8.198;2022-10-16T10:04:06;3.45;;;1.50;;
65271;SDS011;51868;48.812;8.198;2022-10-16T10:06:35;2.55;;;1.67;;
65271;SDS011;51868;48.812;8.198;2022-10-16T10:09:06;3.47;;;1.75;;
65271;SDS011;51868;48.812;8.198;2022-10-16T10:11:46;4.20;;;1.70;;
65271;SDS011;51868;48.812;8.198;2022-10-16T10:14:17;3.10;;;1.52;;
65271;SDS011;51868;48.812;8.198;2022-10-16T10:16:50;5.33;;;1.80;;
65271;SDS011;51868;48.812;8.198;2022-10-16T10:19:22;3.38;;;1.60;;
65271;SDS011;51868;48.812;8.198;2022-10-16T10:21:54;8.07;;;1.90;;
65271;SDS011;51868;48.812;8.198;2022-10-16T10:24:22;4.90;;;1.65;;
65271;SDS011;51868;48.812;8.198;2022-10-16T10:26:51;3.53;;;1.50;;
65271;SDS011;51868;48.812;8.198;2022-10-16T10:29:28;7.55;;;1.63;;
65271;SDS011;51868;48.812;8.198;2022-10-16T10:32:14;3.88;;;1.63;;
65271;SDS011;51868;48.812;8.198;2022-10-16T10:34:56;2.20;;;1.60;;
65271;SDS011;51868;48.812;8.198;2022-10-16T10:37:41;7.63;;;1.63;;
65271;SDS011;51868;48.812;8.198;2022-10-16T10:40:22;3.15;;;1.48;;
65271;SDS011;51868;48.812;8.198;2022-10-16T10:42:57;5.55;;;1.58;;
65271;SDS011;51868;48.812;8.198;2022-10-16T10:45:36;8.35;;;1.85;;
65271;SDS011;51868;48.812;8.198;2022-10-16T10:48:15;6.88;;;1.85;;
65271;SDS011;51868;48.812;8.198;2022-10-16T10:50:52;4.75;;;1.77;;
65271;SDS011;51868;48.812;8.198;2022-10-16T10:53:33;7.18;;;1.67;;
65271;SDS011;51868;48.812;8.198;2022-10-16T10:56:10;5.45;;;2.55;;
65271;SDS011;51868;48.812;8.198;2022-10-16T10:58:50;2.63;;;1.50;;
65271;SDS011;51868;48.812;8.198;2022-10-16T11:01:30;7.85;;;1.90;;
65271;SDS011;51868;48.812;8.198;2022-10-16T11:04:15;4.22;;;1.30;;
65271;SDS011;51868;48.812;8.198;2022-10-16T11:06:52;4.10;;;1.48;;
65271;SDS011;51868;48.812;8.198;2022-10-16T11:09:25;2.67;;;1.23;;
65271;SDS011;51868;48.812;8.198;2022-10-16T11:12:00;5.80;;;1.70;;
65271;SDS011;51868;48.812;8.198;2022-10-16T11:14:34;5.97;;;1.58;;
65271;SDS011;51868;48.812;8.198;2022-10-16T11:17:09;4.72;;;1.30;;
65271;SDS011;51868;48.812;8.198;2022-10-16T11:19:41;2.90;;;1.40;;
65271;SDS011;51868;48.812;8.198;2022-10-16T11:22:17;2.92;;;1.42;;
65271;SDS011;51868;48.812;8.198;2022-10-16T11:24:51;3.70;;;1.60;;
65271;SDS011;51868;48.812;8.198;2022-10-16T11:27:30;4.13;;;1.63;;
65271;SDS011;51868;48.812;8.198;2022-10-16T11:30:04;3.28;;;1.60;;
65271;SDS011;51868;48.812;8.198;2022-10-16T11:32:47;2.05;;;1.40;;
65271;SDS011;51868;48.812;8.198;2022-10-16T11:35:24;4.38;;;1.55;;
65271;SDS011;51868;48.812;8.198;2022-10-16T11:37:59;3.90;;;1.75;;
65271;SDS011;51868;48.812;8.198;2022-10-16T11:40:31;3.50;;;1.60;;
65271;SDS011;51868;48.812;8.198;2022-10-16T11:43:02;3.10;;;1.67;;
65271;SDS011;51868;48.812;8.198;2022-10-16T11:45:42;3.60;;;1.60;;
65271;SDS011;51868;48.812;8.198;2022-10-16T11:48:15;3.67;;;1.50;;
65271;SDS011;51868;48.812;8.198;2022-10-16T11:50:52;1.65;;;1.23;;
65271;SDS011;51868;48.812;8.198;2022-10-16T11:53:23;2.55;;;1.40;;
65271;SDS011;51868;48.812;8.198;2022-10-16T11:55:59;5.22;;;1.55;;
65271;SDS011;51868;48.812;8.198;2022-10-16T11:58:27;3.83;;;1.70;;
65271;SDS011;51868;48.812;8.198;2022-10-16T12:01:03;3.35;;;1.35;;
65271;SDS011;51868;48.812;8.198;2022-10-16T12:03:44;3.50;;;1.40;;
65271;SDS011;51868;48.812;8.198;2022-10-16T12:06:22;3.55;;;1.67;;
65271;SDS011;51868;48.812;8.198;2022-10-16T12:08:58;2.80;;;1.50;;
65271;SDS011;51868;48.812;8.198;2022-10-16T12:11:34;7.90;;;1.50;;
65271;SDS011;51868;48.812;8.198;2022-10-16T12:14:05;6.63;;;2.20;;
65271;SDS011;51868;48.812;8.198;2022-10-16T12:16:50;2.45;;;1.70;;
65271;SDS011;51868;48.812;8.198;2022-10-16T12:19:20;4.05;;;1.48;;
65271;SDS011;51868;48.812;8.198;2022-10-16T12:21:54;6.80;;;3.00;;
65271;SDS011;51868;48.812;8.198;2022-10-16T12:24:31;4.88;;;2.65;;
65271;SDS011;51868;48.812;8.198;2022-10-16T12:27:01;3.10;;;1.40;;
65271;SDS011;51868;48.812;8.198;2022-10-16T12:29:32;6.10;;;1.60;;
65271;SDS011;51868;48.812;8.198;2022-10-16T12:34:37;4.03;;;1.77;;
65271;SDS011;51868;48.812;8.198;2022-10-16T12:37:11;2.80;;;1.60;;
65271;SDS011;51868;48.812;8.198;2022-10-16T12:39:42;2.40;;;1.48;;
65271;SDS011;51868;48.812;8.198;2022-10-16T12:42:30;4.85;;;2.30;;
65271;SDS011;51868;48.812;8.198;2022-10-16T12:45:12;2.38;;;1.70;;
65271;SDS011;51868;48.812;8.198;2022-10-16T12:47:54;4.47;;;1.58;;
65271;SDS011;51868;48.812;8.198;2022-10-16T12:50:25;5.95;;;1.48;;
65271;SDS011;51868;48.812;8.198;2022-10-16T12:52:58;4.55;;;1.67;;
65271;SDS011;51868;48.812;8.198;2022-10-16T12:55:33;6.90;;;1.60;;
65271;SDS011;51868;48.812;8.198;2022-10-16T12:58:30;9.93;;;2.00;;
65271;SDS011;51868;48.812;8.198;2022-10-16T13:01:10;4.70;;;1.77;;
65271;SDS011;51868;48.812;8.198;2022-10-16T13:06:38;4.13;;;1.60;;
65271;SDS011;51868;48.812;8.198;2022-10-16T13:09:33;4.70;;;1.90;;
65271;SDS011;51868;48.812;8.198;2022-10-16T13:12:11;3.15;;;1.70;;
65271;SDS011;51868;48.812;8.198;2022-10-16T13:14:58;7.47;;;2.00;;
65271;SDS011;51868;48.812;8.198;2022-10-16T13:17:38;2.25;;;1.80;;
65271;SDS011;51868;48.812;8.198;2022-10-16T13:20:16;5.97;;;1.52;;
65271;SDS011;51868;48.812;8.198;2022-10-16T13:22:52;4.20;;;1.63;;
65271;SDS011;51868;48.812;8.198;2022-10-16T13:25:35;2.92;;;1.85;;
65271;SDS011;51868;48.812;8.198;2022-10-16T13:28:13;4.53;;;1.90;;
65271;SDS011;51868;48.812;8.198;2022-10-16T13:30:51;3.78;;;1.90;;
65271;SDS011;51868;48.812;8.198;2022-10-16T13:33:20;5.05;;;1.58;;
65271;SDS011;51868;48.812;8.198;2022-10-16T13:35:55;2.35;;;1.70;;
65271;SDS011;51868;48.812;8.198;2022-10-16T13:38:25;4.00;;;1.80;;
65271;SDS011;51868;48.812;8.198;2022-10-16T13:40:56;6.45;;;1.80;;
65271;SDS011;51868;48.812;8.198;2022-10-16T13:43:26;5.63;;;1.80;;
65271;SDS011;51868;48.812;8.198;2022-10-16T13:46:00;8.20;;;1.97;;
65271;SDS011;51868;48.812;8.198;2022-10-16T13:48:43;3.58;;;1.70;;
65271;SDS011;51868;48.812;8.198;2022-10-16T13:51:12;4.22;;;1.70;;
65271;SDS011;51868;48.812;8.198;2022-10-16T13:53:41;3.58;;;1.73;;
65271;SDS011;51868;48.812;8.198;2022-10-16T13:56:14;3.83;;;1.60;;
65271;SDS011;51868;48.812;8.198;2022-10-16T13:58:43;2.75;;;1.70;;
65271;SDS011;51868;48.812;8.198;2022-10-16T14:01:15;4.07;;;1.70;;
65271;SDS011;51868;48.812;8.198;2022-10-16T14:03:47;3.15;;;1.50;;
65271;SDS011;51868;48.812;8.198;2022-10-16T14:06:16;5.90;;;1.48;;
65271;SDS011;51868;48.812;8.198;2022-10-16T14:08:48;2.60;;;1.30;;
65271;SDS011;51868;48.812;8.198;2022-10-16T14:11:27;3.35;;;1.60;;
65271;SDS011;51868;48.812;8.198;2022-10-16T14:13:56;1.88;;;1.40;;
65271;SDS011;51868;48.812;8.198;2022-10-16T14:16:25;5.88;;;2.10;;
65271;SDS011;51868;48.812;8.198;2022-10-16T14:18:59;4.78;;;1.88;;
65271;SDS011;51868;48.812;8.198;2022-10-16T14:21:30;2.88;;;1.65;;
65271;SDS011;51868;48.812;8.198;2022-10-16T14:23:58;5.63;;;1.58;;
65271;SDS011;51868;48.812;8.198;2022-10-16T14:26:26;2.28;;;1.80;;
65271;SDS011;51868;48.812;8.198;2022-10-16T14:29:03;6.45;;;1.70;;
65271;SDS011;51868;48.812;8.198;2022-10-16T14:31:37;4.25;;;1.88;;
65271;SDS011;51868;48.812;8.198;2022-10-16T14:36:53;5.25;;;1.80;;
65271;SDS011;51868;48.812;8.198;2022-10-16T14:39:22;6.13;;;1.75;;
65271;SDS011;51868;48.812;8.198;2022-10-16T14:41:54;7.63;;;2.20;;
65271;SDS011;51868;48.812;8.198;2022-10-16T14:46:54;5.72;;;2.17;;
65271;SDS011;51868;48.812;8.198;2022-10-16T14:49:22;6.90;;;2.10;;
65271;SDS011;51868;48.812;8.198;2022-10-16T14:51:51;5.50;;;2.42;;
65271;SDS011;51868;48.812;8.198;2022-10-16T14:54:21;3.90;;;2.15;;
65271;SDS011;51868;48.812;8.198;2022-10-16T14:56:49;6.75;;;2.58;;
65271;SDS011;51868;48.812;8.198;2022-10-16T14:59:22;3.58;;;2.30;;
65271;SDS011;51868;48.812;8.198;2022-10-16T15:01:55;5.65;;;2.08;;
65271;SDS011;51868;48.812;8.198;2022-10-16T15:04:23;3.83;;;2.03;;
65271;SDS011;51868;48.812;8.198;2022-10-16T15:06:51;3.03;;;1.90;;
65271;SDS011;51868;48.812;8.198;2022-10-16T15:09:18;4.13;;;2.22;;
65271;SDS011;51868;48.812;8.198;2022-10-16T15:11:46;4.43;;;1.80;;
65271;SDS011;51868;48.812;8.198;2022-10-16T15:14:14;3.88;;;2.17;;
65271;SDS011;51868;48.812;8.198;2022-10-16T15:16:43;3.13;;;1.80;;
65271;SDS011;51868;48.812;8.198;2022-10-16T15:19:12;3.40;;;2.08;;
65271;SDS011;51868;48.812;8.198;2022-10-16T15:21:39;5.40;;;2.10;;
65271;SDS011;51868;48.812;8.198;2022-10-16T15:24:08;5.10;;;2.17;;
65271;SDS011;51868;48.812;8.198;2022-10-16T15:26:44;2.45;;;1.98;;